Time;durP1;ratioP1;P1;durP2;ratioP2;P2;SDS_P1;SDS_P2;PMS_P1;PMS_P2;Temp;Humidity;BMP_temperature;BMP_pressure;BME280_temperature;BME280_humidity;BME280_pressure;Samples;Min_cycle;Max_cycle;Signal;HPM_P1;HPM_P2
2021/05/17 00:01:13;;;;;;;0.63;0.38;;;;;;;;;;5047834;28;20071;-79
2021/05/17 00:03:41;;;;;;;1.23;0.30;;;;;;;;;;5055852;28;20036;-79
2021/05/17 00:06:06;;;;;;;0.35;0.20;;;;;;;;;;5049801;28;20025;-79
2021/05/17 00:08:32;;;;;;;0.28;0.28;;;;;;;;;;5050057;28;20107;-79
2021/05/17 00:10:57;;;;;;;0.63;0.38;;;;;;;;;;5049291;28;20522;-78
2021/05/17 00:13:22;;;;;;;0.35;0.35;;;;;;;;;;5056205;28;20120;-79
2021/05/17 00:15:47;;;;;;;0.28;0.20;;;;;;;;;;5062516;28;20028;-78
2021/05/17 00:18:13;;;;;;;0.20;0.20;;;;;;;;;;5054959;28;20025;-79
2021/05/17 00:20:38;;;;;;;0.60;0.30;;;;;;;;;;5053259;28;20020;-80
2021/05/17 00:23:03;;;;;;;0.63;0.28;;;;;;;;;;5055247;28;20136;-78
2021/05/17 00:25:29;;;;;;;0.55;0.30;;;;;;;;;;5055987;28;20487;-79
2021/05/17 00:27:55;;;;;;;0.30;0.30;;;;;;;;;;5042517;28;20368;-79
2021/05/17 00:30:22;;;;;;;0.95;0.40;;;;;;;;;;5065220;28;20436;-78
2021/05/17 00:32:47;;;;;;;0.20;0.20;;;;;;;;;;5055582;28;20428;-80
2021/05/17 00:35:13;;;;;;;0.80;0.30;;;;;;;;;;5062750;28;20086;-79
2021/05/17 00:37:38;;;;;;;0.30;0.30;;;;;;;;;;5067690;28;20094;-79
2021/05/17 00:40:05;;;;;;;0.93;0.38;;;;;;;;;;5055647;28;20064;-79
2021/05/17 00:42:30;;;;;;;0.65;0.40;;;;;;;;;;5053955;28;20021;-79
2021/05/17 00:44:56;;;;;;;1.90;0.40;;;;;;;;;;5060946;28;20024;-80
2021/05/17 00:47:23;;;;;;;1.80;0.40;;;;;;;;;;5058995;28;20118;-79
2021/05/17 00:49:48;;;;;;;0.30;0.30;;;;;;;;;;5059567;28;20036;-79
2021/05/17 00:52:14;;;;;;;0.50;0.40;;;;;;;;;;5052485;28;20425;-78
2021/05/17 00:54:39;;;;;;;0.68;0.30;;;;;;;;;;5052961;28;20032;-79
2021/05/17 00:57:06;;;;;;;0.73;0.40;;;;;;;;;;5058999;28;20051;-78
2021/05/17 00:59:31;;;;;;;2.10;0.65;;;;;;;;;;5050162;28;21593;-79
2021/05/17 01:01:57;;;;;;;1.88;0.35;;;;;;;;;;5049689;28;20551;-80
2021/05/17 01:04:22;;;;;;;0.30;0.28;;;;;;;;;;5054201;28;20036;-77
2021/05/17 01:06:50;;;;;;;0.30;0.30;;;;;;;;;;5057430;28;20383;-78
2021/05/17 01:09:16;;;;;;;1.80;0.40;;;;;;;;;;5055024;28;20029;-79
2021/05/17 01:11:41;;;;;;;0.73;0.40;;;;;;;;;;5053840;28;20055;-80
2021/05/17 01:14:08;;;;;;;0.60;0.47;;;;;;;;;;5062882;28;20044;-79
2021/05/17 01:16:33;;;;;;;0.40;0.40;;;;;;;;;;5052579;28;20024;-78
2021/05/17 01:18:59;;;;;;;0.50;0.50;;;;;;;;;;5064397;28;20032;-78
2021/05/17 01:21:28;;;;;;;0.52;0.40;;;;;;;;;;5054414;28;20028;-79
2021/05/17 01:23:56;;;;;;;0.40;0.40;;;;;;;;;;5054859;28;20106;-79
2021/05/17 01:26:22;;;;;;;1.90;0.60;;;;;;;;;;5057493;28;20027;-80
2021/05/17 01:28:48;;;;;;;0.47;0.40;;;;;;;;;;5068482;28;20036;-79
2021/05/17 01:31:13;;;;;;;1.23;0.60;;;;;;;;;;5059276;28;20033;-78
2021/05/17 01:33:40;;;;;;;2.10;0.57;;;;;;;;;;5057377;28;20049;-78
2021/05/17 01:36:06;;;;;;;1.70;0.73;;;;;;;;;;5052622;28;20056;-79
2021/05/17 01:38:32;;;;;;;1.17;1.02;;;;;;;;;;5053111;28;20032;-79
2021/05/17 01:40:58;;;;;;;1.77;0.60;;;;;;;;;;5054171;28;20377;-78
2021/05/17 01:43:23;;;;;;;1.17;0.60;;;;;;;;;;5054275;28;20464;-78
2021/05/17 01:45:49;;;;;;;2.42;0.77;;;;;;;;;;5046852;28;20032;-79
2021/05/17 01:48:14;;;;;;;0.90;0.50;;;;;;;;;;5051165;28;20048;-80
2021/05/17 01:50:40;;;;;;;0.85;0.50;;;;;;;;;;5056454;28;20154;-78
2021/05/17 01:53:05;;;;;;;1.13;0.55;;;;;;;;;;5055386;28;20037;-79
2021/05/17 01:55:31;;;;;;;3.40;0.60;;;;;;;;;;5057763;28;20768;-78
2021/05/17 01:58:05;;;;;;;2.17;0.50;;;;;;;;;;5057305;28;20020;-79
2021/05/17 02:00:31;;;;;;;2.08;0.52;;;;;;;;;;5048492;28;20021;-78
2021/05/17 02:02:57;;;;;;;1.58;0.63;;;;;;;;;;5036186;28;20083;-79
2021/05/17 02:05:22;;;;;;;1.33;0.80;;;;;;;;;;5030861;28;20079;-79
2021/05/17 02:07:48;;;;;;;1.13;0.60;;;;;;;;;;5055609;28;20020;-79
2021/05/17 02:10:13;;;;;;;1.13;0.60;;;;;;;;;;5054058;28;20037;-79
2021/05/17 02:12:38;;;;;;;2.92;0.60;;;;;;;;;;5050339;28;20163;-80
2021/05/17 02:15:04;;;;;;;0.95;0.40;;;;;;;;;;5058935;28;20031;-79
2021/05/17 02:17:29;;;;;;;0.70;0.40;;;;;;;;;;5059014;28;20468;-78
2021/05/17 02:19:54;;;;;;;1.50;0.70;;;;;;;;;;5050262;28;20072;-77
2021/05/17 02:22:20;;;;;;;3.25;0.60;;;;;;;;;;5038879;28;20060;-79
2021/05/17 02:24:47;;;;;;;0.80;0.80;;;;;;;;;;5050637;28;20083;-78
2021/05/17 02:27:15;;;;;;;1.58;0.63;;;;;;;;;;5050026;28;20411;-78
2021/05/17 02:29:42;;;;;;;1.20;0.60;;;;;;;;;;5050399;28;20020;-79
2021/05/17 02:32:08;;;;;;;1.30;0.55;;;;;;;;;;5058188;28;20122;-78
2021/05/17 02:34:33;;;;;;;8.32;0.70;;;;;;;;;;5058168;28;20037;-77
2021/05/17 02:36:58;;;;;;;1.73;0.60;;;;;;;;;;5053947;28;20028;-78
2021/05/17 02:39:24;;;;;;;0.57;0.50;;;;;;;;;;5054840;28;20063;-78
2021/05/17 02:41:50;;;;;;;1.77;0.77;;;;;;;;;;5051025;28;20058;-79
2021/05/17 02:44:15;;;;;;;1.40;0.50;;;;;;;;;;5049574;28;20451;-79
2021/05/17 02:46:40;;;;;;;1.00;0.30;;;;;;;;;;5056584;28;20033;-78
2021/05/17 02:49:06;;;;;;;1.85;0.60;;;;;;;;;;5053245;28;20032;-78
2021/05/17 02:51:31;;;;;;;0.47;0.30;;;;;;;;;;5049791;28;20077;-78
2021/05/17 02:54:07;;;;;;;0.35;0.35;;;;;;;;;;5049873;28;20091;-77
2021/05/17 02:56:48;;;;;;;0.60;0.30;;;;;;;;;;5048969;28;20074;-78
2021/05/17 02:59:17;;;;;;;0.85;0.40;;;;;;;;;;5048836;28;20017;-77
2021/05/17 03:01:48;;;;;;;0.45;0.35;;;;;;;;;;5049196;28;20021;-78
2021/05/17 03:04:15;;;;;;;1.08;0.45;;;;;;;;;;5047816;28;20110;-80
2021/05/17 03:06:41;;;;;;;1.95;0.45;;;;;;;;;;5056307;28;20040;-82
2021/05/17 03:09:07;;;;;;;0.40;0.40;;;;;;;;;;5054879;28;20491;-80
2021/05/17 03:11:44;;;;;;;0.40;0.30;;;;;;;;;;5062734;28;20029;-80
2021/05/17 03:14:13;;;;;;;0.30;0.30;;;;;;;;;;5052820;28;20033;-80
2021/05/17 03:16:39;;;;;;;2.88;0.40;;;;;;;;;;5042069;28;20553;-79
2021/05/17 03:19:06;;;;;;;1.08;0.40;;;;;;;;;;5057415;28;20102;-79
2021/05/17 03:21:32;;;;;;;1.13;0.50;;;;;;;;;;5051222;28;20471;-80
2021/05/17 03:23:58;;;;;;;1.48;0.30;;;;;;;;;;5044988;28;20163;-80
2021/05/17 03:26:24;;;;;;;0.90;0.60;;;;;;;;;;5048639;28;20021;-79
2021/05/17 03:28:49;;;;;;;1.77;0.32;;;;;;;;;;5054894;28;20032;-80
2021/05/17 03:31:15;;;;;;;1.30;0.50;;;;;;;;;;5057721;28;20047;-79
2021/05/17 03:33:40;;;;;;;0.63;0.30;;;;;;;;;;5048242;28;20135;-80
2021/05/17 03:36:05;;;;;;;0.20;0.20;;;;;;;;;;5036007;28;20089;-80
2021/05/17 03:38:31;;;;;;;0.52;0.40;;;;;;;;;;5057302;28;20020;-80
2021/05/17 03:40:56;;;;;;;1.08;0.25;;;;;;;;;;5060225;28;20082;-81
2021/05/17 03:43:21;;;;;;;1.92;0.40;;;;;;;;;;5055848;28;20021;-80
2021/05/17 03:45:47;;;;;;;0.80;0.30;;;;;;;;;;5048225;28;20105;-79
2021/05/17 03:48:12;;;;;;;1.15;0.32;;;;;;;;;;5057155;28;20427;-81
2021/05/17 03:50:37;;;;;;;3.70;0.47;;;;;;;;;;5047623;28;20064;-81
2021/05/17 03:53:02;;;;;;;0.57;0.40;;;;;;;;;;5050899;28;20499;-81
2021/05/17 03:55:27;;;;;;;1.70;0.50;;;;;;;;;;5049401;28;20836;-81
2021/05/17 03:57:56;;;;;;;0.77;0.40;;;;;;;;;;5051181;28;20060;-80
2021/05/17 04:00:22;;;;;;;0.95;0.40;;;;;;;;;;5055083;28;20024;-82
2021/05/17 04:02:47;;;;;;;1.85;0.88;;;;;;;;;;5069050;28;20030;-84
2021/05/17 04:08:23;;;;;;;0.93;0.50;;;;;;;;;;5057574;28;20037;-79
2021/05/17 04:13:32;;;;;;;0.88;0.40;;;;;;;;;;5050725;28;20407;-80
2021/05/17 04:15:57;;;;;;;4.05;0.70;;;;;;;;;;5058294;28;20138;-79
2021/05/17 04:18:23;;;;;;;1.45;0.50;;;;;;;;;;5052134;28;20025;-80
2021/05/17 04:20:49;;;;;;;0.98;0.43;;;;;;;;;;5052342;28;20486;-79
2021/05/17 04:23:14;;;;;;;2.08;0.55;;;;;;;;;;5054226;28;20383;-78
2021/05/17 04:25:39;;;;;;;0.95;0.50;;;;;;;;;;5049958;28;20061;-79
2021/05/17 04:28:05;;;;;;;2.72;0.50;;;;;;;;;;5059337;28;20108;-79
2021/05/17 04:30:30;;;;;;;3.65;0.70;;;;;;;;;;5049233;28;20028;-78
2021/05/17 04:32:56;;;;;;;3.47;0.70;;;;;;;;;;5050849;28;20056;-78
2021/05/17 04:35:21;;;;;;;2.70;0.65;;;;;;;;;;5061718;28;20033;-80
2021/05/17 04:37:46;;;;;;;4.80;0.75;;;;;;;;;;5045707;28;20025;-78
2021/05/17 04:40:12;;;;;;;4.90;0.88;;;;;;;;;;5047280;28;20033;-78
2021/05/17 04:42:37;;;;;;;2.97;0.70;;;;;;;;;;5046375;28;20381;-79
2021/05/17 04:45:03;;;;;;;3.53;0.80;;;;;;;;;;5043873;28;20044;-78
2021/05/17 04:47:28;;;;;;;2.13;0.60;;;;;;;;;;5031899;28;20535;-78
2021/05/17 04:49:53;;;;;;;4.18;0.73;;;;;;;;;;5047434;28;20108;-78
2021/05/17 04:52:18;;;;;;;11.05;0.80;;;;;;;;;;5052990;28;20017;-77
2021/05/17 04:54:44;;;;;;;3.17;0.80;;;;;;;;;;5061477;28;20086;-78
2021/05/17 04:57:09;;;;;;;5.10;0.68;;;;;;;;;;5033280;28;20027;-71
2021/05/17 04:59:34;;;;;;;1.83;0.60;;;;;;;;;;5051748;28;20128;-71
2021/05/17 05:01:59;;;;;;;6.20;0.75;;;;;;;;;;5048498;28;20060;-72
2021/05/17 05:04:25;;;;;;;3.42;0.85;;;;;;;;;;5055581;28;20029;-72
2021/05/17 05:06:50;;;;;;;3.90;0.73;;;;;;;;;;5069123;28;20103;-71
2021/05/17 05:09:15;;;;;;;4.60;0.70;;;;;;;;;;5060043;28;20067;-71
2021/05/17 05:11:40;;;;;;;1.80;0.57;;;;;;;;;;5062023;28;20021;-70
2021/05/17 05:14:05;;;;;;;3.53;1.00;;;;;;;;;;5070413;28;20380;-71
2021/05/17 05:16:31;;;;;;;2.78;0.70;;;;;;;;;;5057140;28;20025;-71
2021/05/17 05:18:56;;;;;;;3.17;1.00;;;;;;;;;;5050951;28;20033;-70
2021/05/17 05:21:21;;;;;;;4.10;0.80;;;;;;;;;;5059396;28;20379;-71
2021/05/17 05:23:47;;;;;;;6.75;1.00;;;;;;;;;;5058227;28;20037;-71
2021/05/17 05:31:54;;;;;;;6.13;1.10;;;;;;;;;;5050899;28;20365;-72
2021/05/17 05:34:19;;;;;;;4.80;0.77;;;;;;;;;;5033073;28;20786;-71
2021/05/17 05:36:44;;;;;;;6.35;1.13;;;;;;;;;;5059752;28;20100;-72
2021/05/17 05:39:10;;;;;;;7.85;1.00;;;;;;;;;;5065317;28;20055;-72
2021/05/17 05:41:35;;;;;;;5.18;0.75;;;;;;;;;;5058241;28;20031;-72
2021/05/17 05:44:00;;;;;;;7.85;1.15;;;;;;;;;;5059120;28;20029;-70
2021/05/17 05:46:26;;;;;;;4.43;0.93;;;;;;;;;;5059878;28;20024;-70
2021/05/17 05:48:51;;;;;;;3.75;0.82;;;;;;;;;;5070070;28;20074;-71
2021/05/17 05:51:21;;;;;;;5.60;1.17;;;;;;;;;;5051816;28;20100;-71
2021/05/17 05:53:47;;;;;;;3.15;1.05;;;;;;;;;;5054221;28;20036;-73
2021/05/17 05:56:12;;;;;;;3.15;0.90;;;;;;;;;;5032818;28;20025;-71
2021/05/17 05:58:37;;;;;;;7.70;1.00;;;;;;;;;;5058735;28;20469;-71
2021/05/17 06:01:03;;;;;;;2.90;0.98;;;;;;;;;;5061912;28;20783;-71
2021/05/17 06:03:28;;;;;;;5.32;1.00;;;;;;;;;;5062732;28;20025;-70
2021/05/17 06:05:54;;;;;;;4.05;1.10;;;;;;;;;;5057613;28;20073;-72
2021/05/17 06:08:19;;;;;;;6.18;1.23;;;;;;;;;;5056141;28;20393;-71
2021/05/17 06:10:44;;;;;;;4.05;0.88;;;;;;;;;;5033800;28;20037;-72
2021/05/17 06:13:10;;;;;;;3.83;0.93;;;;;;;;;;5056571;28;20020;-72
2021/05/17 06:15:36;;;;;;;4.13;0.98;;;;;;;;;;5050912;28;20063;-72
2021/05/17 06:18:01;;;;;;;2.72;0.70;;;;;;;;;;5050760;28;20017;-71
2021/05/17 06:20:26;;;;;;;2.42;0.77;;;;;;;;;;5067794;28;20024;-71
2021/05/17 06:22:51;;;;;;;2.00;0.88;;;;;;;;;;5068699;28;20061;-72
2021/05/17 06:25:17;;;;;;;6.07;1.05;;;;;;;;;;5060085;28;20024;-70
2021/05/17 06:27:42;;;;;;;2.80;0.80;;;;;;;;;;5059594;28;20538;-72
2021/05/17 06:30:10;;;;;;;4.40;0.88;;;;;;;;;;5056550;28;20040;-71
2021/05/17 06:32:36;;;;;;;6.53;1.38;;;;;;;;;;5063298;28;20052;-71
2021/05/17 06:35:01;;;;;;;3.95;1.00;;;;;;;;;;5049824;28;20041;-72
2021/05/17 06:37:27;;;;;;;4.25;1.00;;;;;;;;;;5032103;28;20032;-72
2021/05/17 06:39:52;;;;;;;2.80;0.85;;;;;;;;;;5056914;28;20026;-71
2021/05/17 06:42:18;;;;;;;4.80;1.20;;;;;;;;;;5063837;28;20023;-71
2021/05/17 06:44:44;;;;;;;2.13;0.85;;;;;;;;;;5054967;28;20036;-71
2021/05/17 06:47:10;;;;;;;3.85;0.85;;;;;;;;;;5050777;28;20029;-71
2021/05/17 06:49:35;;;;;;;4.05;0.90;;;;;;;;;;5061954;28;20502;-71
2021/05/17 06:52:00;;;;;;;4.13;0.93;;;;;;;;;;5050106;28;20074;-71
2021/05/17 06:54:29;;;;;;;1.90;0.77;;;;;;;;;;5058398;28;20036;-71
2021/05/17 06:59:23;;;;;;;3.75;0.93;;;;;;;;;;5055950;28;20549;-70
2021/05/17 07:01:48;;;;;;;4.60;0.93;;;;;;;;;;5056309;28;20029;-71
2021/05/17 07:04:16;;;;;;;1.70;0.70;;;;;;;;;;5056110;28;20025;-71
2021/05/17 07:06:52;;;;;;;2.55;0.88;;;;;;;;;;5049684;28;20027;-70
2021/05/17 07:12:10;;;;;;;3.55;0.75;;;;;;;;;;5059002;28;20023;-71
2021/05/17 07:14:35;;;;;;;4.03;0.75;;;;;;;;;;5064113;28;20033;-71
2021/05/17 07:17:00;;;;;;;4.70;0.98;;;;;;;;;;5049501;28;20023;-72
2021/05/17 07:19:25;;;;;;;2.08;0.80;;;;;;;;;;5051057;28;20017;-73
2021/05/17 07:24:36;;;;;;;1.85;0.70;;;;;;;;;;5061022;28;20441;-72
2021/05/17 07:27:01;;;;;;;4.65;1.05;;;;;;;;;;5065897;28;20013;-71
2021/05/17 07:29:31;;;;;;;2.88;1.20;;;;;;;;;;5049351;28;20103;-72
2021/05/17 07:31:56;;;;;;;4.00;0.68;;;;;;;;;;5049825;28;20028;-72
2021/05/17 07:34:21;;;;;;;4.18;0.80;;;;;;;;;;5057996;28;20117;-73
2021/05/17 07:36:47;;;;;;;3.22;0.90;;;;;;;;;;5065493;28;20052;-72
2021/05/17 07:39:13;;;;;;;5.18;0.80;;;;;;;;;;5052391;28;20017;-72
2021/05/17 07:41:38;;;;;;;4.22;0.90;;;;;;;;;;5057976;28;20020;-72
2021/05/17 07:44:03;;;;;;;2.53;0.65;;;;;;;;;;5068252;28;20475;-71
2021/05/17 07:46:28;;;;;;;5.40;0.85;;;;;;;;;;5068472;28;20055;-72
2021/05/17 07:49:10;;;;;;;2.67;0.90;;;;;;;;;;5067983;28;20021;-72
2021/05/17 07:51:36;;;;;;;1.92;0.80;;;;;;;;;;5055540;28;20384;-71
2021/05/17 07:54:02;;;;;;;3.90;0.68;;;;;;;;;;5058750;28;20037;-72
2021/05/17 07:56:27;;;;;;;3.42;0.60;;;;;;;;;;5065903;28;20848;-72
2021/05/17 07:58:52;;;;;;;3.75;0.68;;;;;;;;;;5049261;28;20474;-71
2021/05/17 08:01:18;;;;;;;3.83;0.68;;;;;;;;;;5049835;28;20491;-71
2021/05/17 08:03:43;;;;;;;2.08;0.70;;;;;;;;;;5062404;28;20021;-71
2021/05/17 08:06:08;;;;;;;4.72;0.80;;;;;;;;;;5055664;28;20032;-72
2021/05/17 08:08:34;;;;;;;1.55;0.73;;;;;;;;;;5056127;28;20016;-72
2021/05/17 08:11:00;;;;;;;3.33;0.85;;;;;;;;;;5061431;28;20029;-71
2021/05/17 08:13:25;;;;;;;4.25;0.60;;;;;;;;;;5054195;28;20036;-72
2021/05/17 08:15:51;;;;;;;2.10;0.80;;;;;;;;;;5061551;28;20028;-72
2021/05/17 08:18:16;;;;;;;2.30;0.68;;;;;;;;;;5055545;28;20017;-72
2021/05/17 08:20:41;;;;;;;4.68;0.80;;;;;;;;;;5060921;28;20039;-72
2021/05/17 08:23:07;;;;;;;2.22;0.50;;;;;;;;;;5050818;28;20063;-71
2021/05/17 08:25:33;;;;;;;1.67;0.57;;;;;;;;;;5063189;28;20020;-72
2021/05/17 08:27:59;;;;;;;2.33;0.50;;;;;;;;;;5068050;28;20013;-72
2021/05/17 08:30:25;;;;;;;3.30;0.50;;;;;;;;;;5057543;28;20032;-71
2021/05/17 08:32:50;;;;;;;1.27;0.50;;;;;;;;;;5056954;28;20040;-71
2021/05/17 08:35:15;;;;;;;3.20;0.55;;;;;;;;;;5065755;28;20434;-72
2021/05/17 08:37:40;;;;;;;1.50;0.60;;;;;;;;;;5060875;28;20020;-70
2021/05/17 08:40:06;;;;;;;2.40;0.50;;;;;;;;;;5056073;28;20025;-71
2021/05/17 08:42:32;;;;;;;5.60;0.70;;;;;;;;;;5052643;28;20270;-72
2021/05/17 08:44:57;;;;;;;0.93;0.50;;;;;;;;;;5053542;28;20025;-71
2021/05/17 08:47:22;;;;;;;2.92;0.50;;;;;;;;;;5066846;28;20032;-71
2021/05/17 08:49:47;;;;;;;5.75;0.68;;;;;;;;;;5057324;28;20063;-72
2021/05/17 08:52:13;;;;;;;2.40;0.50;;;;;;;;;;5059805;28;20020;-72
2021/05/17 08:54:38;;;;;;;1.10;0.40;;;;;;;;;;5058474;28;20040;-72
2021/05/17 08:57:03;;;;;;;1.38;0.35;;;;;;;;;;5052320;28;20082;-71
2021/05/17 08:59:29;;;;;;;2.78;0.38;;;;;;;;;;5058600;28;20028;-72
2021/05/17 09:01:54;;;;;;;0.75;0.30;;;;;;;;;;5052104;28;20087;-72
2021/05/17 09:04:19;;;;;;;0.35;0.30;;;;;;;;;;5052406;28;20031;-71
2021/05/17 09:06:48;;;;;;;1.45;0.50;;;;;;;;;;5063567;28;20071;-70
2021/05/17 09:09:22;;;;;;;0.93;0.60;;;;;;;;;;5065414;28;20040;-71
2021/05/17 09:11:48;;;;;;;0.75;0.40;;;;;;;;;;5051823;28;20017;-71
2021/05/17 09:14:13;;;;;;;2.33;0.40;;;;;;;;;;5058484;28;20043;-71
2021/05/17 09:16:45;;;;;;;2.10;0.55;;;;;;;;;;5052764;28;20212;-71
2021/05/17 09:19:11;;;;;;;2.47;0.47;;;;;;;;;;5051703;28;20078;-71
2021/05/17 09:21:56;;;;;;;3.20;0.40;;;;;;;;;;5051930;28;20028;-71
2021/05/17 09:24:38;;;;;;;2.90;0.63;;;;;;;;;;5046095;28;20395;-72
2021/05/17 09:27:03;;;;;;;0.40;0.30;;;;;;;;;;5062037;28;20024;-71
2021/05/17 09:29:29;;;;;;;0.55;0.30;;;;;;;;;;5063906;28;20476;-72
2021/05/17 09:31:54;;;;;;;1.98;0.63;;;;;;;;;;5064095;28;20017;-71
2021/05/17 09:34:32;;;;;;;0.90;0.38;;;;;;;;;;5070553;28;20029;-71
2021/05/17 09:37:00;;;;;;;1.40;0.30;;;;;;;;;;5065646;28;20400;-71
2021/05/17 09:39:25;;;;;;;0.90;0.40;;;;;;;;;;5061215;28;20067;-71
2021/05/17 09:41:55;;;;;;;0.60;0.30;;;;;;;;;;5060872;28;20460;-70
2021/05/17 09:44:22;;;;;;;1.02;0.40;;;;;;;;;;5054581;28;20053;-70
2021/05/17 09:47:01;;;;;;;0.85;0.30;;;;;;;;;;5063412;28;20037;-70
2021/05/17 09:49:32;;;;;;;1.85;0.50;;;;;;;;;;5070809;28;20119;-69
2021/05/17 09:52:09;;;;;;;0.50;0.40;;;;;;;;;;5070060;28;20030;-70
2021/05/17 09:54:53;;;;;;;0.85;0.40;;;;;;;;;;5063793;28;20430;-70
2021/05/17 09:57:20;;;;;;;2.25;0.60;;;;;;;;;;5062422;28;20392;-71
2021/05/17 09:59:45;;;;;;;1.35;0.60;;;;;;;;;;5070475;28;20020;-71
2021/05/17 10:02:30;;;;;;;1.00;0.50;;;;;;;;;;5056884;28;20025;-70
2021/05/17 10:04:56;;;;;;;1.52;0.40;;;;;;;;;;5070228;28;20408;-70
2021/05/17 10:07:21;;;;;;;1.00;0.20;;;;;;;;;;5065148;28;20127;-69
2021/05/17 10:09:47;;;;;;;0.63;0.40;;;;;;;;;;5063970;28;20156;-69
2021/05/17 10:12:12;;;;;;;0.90;0.43;;;;;;;;;;5066601;28;20049;-70
2021/05/17 10:14:37;;;;;;;2.80;1.15;;;;;;;;;;5052655;28;20547;-70
2021/05/17 10:17:02;;;;;;;1.10;0.43;;;;;;;;;;5063655;28;20078;-70
2021/05/17 10:19:28;;;;;;;0.63;0.50;;;;;;;;;;5061734;28;20028;-70
2021/05/17 10:21:53;;;;;;;1.58;0.60;;;;;;;;;;5069699;28;20013;-70
2021/05/17 10:24:19;;;;;;;1.75;0.43;;;;;;;;;;5055098;28;20043;-70
2021/05/17 10:26:45;;;;;;;1.40;0.50;;;;;;;;;;5050678;28;20058;-71
2021/05/17 10:29:11;;;;;;;2.15;0.52;;;;;;;;;;5055669;28;20029;-72
2021/05/17 10:31:50;;;;;;;3.05;0.52;;;;;;;;;;5056843;28;20019;-70
2021/05/17 10:34:15;;;;;;;0.52;0.40;;;;;;;;;;5045184;28;20079;-70
2021/05/17 10:36:57;;;;;;;5.70;0.95;;;;;;;;;;5057943;28;20488;-69
2021/05/17 10:39:27;;;;;;;1.80;0.47;;;;;;;;;;5067128;28;20624;-70
2021/05/17 10:42:04;;;;;;;3.50;0.70;;;;;;;;;;5069459;28;20387;-72
2021/05/17 10:46:35;;;;;;;1.52;0.50;;;;;;;;;;5069074;28;20021;-71
2021/05/17 10:47:26;;;;;;;0.50;0.30;;;;;;;;;;5054347;28;20059;-71
2021/05/17 10:50:09;;;;;;;0.80;0.50;;;;;;;;;;5061501;28;20016;-71
2021/05/17 10:52:35;;;;;;;2.03;0.40;;;;;;;;;;5051112;28;20373;-72
2021/05/17 10:55:02;;;;;;;1.10;0.50;;;;;;;;;;5061573;28;20086;-70
2021/05/17 10:57:30;;;;;;;1.00;0.52;;;;;;;;;;5068855;28;20017;-71
2021/05/17 11:02:42;;;;;;;0.73;0.40;;;;;;;;;;5062783;28;20032;-70
2021/05/17 11:05:11;;;;;;;2.38;0.40;;;;;;;;;;5049873;28;20078;-70
2021/05/17 11:07:49;;;;;;;1.17;0.43;;;;;;;;;;5049988;28;20028;-69
2021/05/17 11:10:32;;;;;;;0.65;0.32;;;;;;;;;;5057624;28;20052;-70
2021/05/17 11:13:03;;;;;;;3.28;0.63;;;;;;;;;;5055917;28;20409;-69
2021/05/17 11:15:39;;;;;;;3.15;0.50;;;;;;;;;;5051648;28;20025;-70
2021/05/17 11:18:04;;;;;;;2.30;0.57;;;;;;;;;;5065966;28;20021;-70
2021/05/17 11:20:43;;;;;;;1.80;0.40;;;;;;;;;;5059166;28;20455;-69
2021/05/17 11:23:09;;;;;;;2.20;0.30;;;;;;;;;;5049661;28;20276;-70
2021/05/17 11:25:44;;;;;;;0.45;0.30;;;;;;;;;;5062619;28;20431;-71
2021/05/17 11:28:09;;;;;;;1.95;0.52;;;;;;;;;;5067507;28;20028;-70
2021/05/17 11:30:39;;;;;;;1.70;0.43;;;;;;;;;;5050864;28;20029;-71
2021/05/17 11:33:13;;;;;;;0.77;0.30;;;;;;;;;;5033350;28;20754;-70
2021/05/17 11:35:57;;;;;;;0.70;0.20;;;;;;;;;;5055329;28;20025;-70
2021/05/17 11:38:22;;;;;;;1.17;0.40;;;;;;;;;;5062294;28;20024;-71
2021/05/17 11:40:48;;;;;;;1.42;0.70;;;;;;;;;;5054336;28;20017;-72
2021/05/17 11:43:13;;;;;;;1.85;0.22;;;;;;;;;;5045542;28;20018;-70
2021/05/17 11:45:38;;;;;;;0.65;0.22;;;;;;;;;;5036777;28;20014;-70
2021/05/17 11:48:04;;;;;;;0.88;0.40;;;;;;;;;;5043797;28;20041;-70
2021/05/17 11:50:29;;;;;;;0.20;0.20;;;;;;;;;;5056110;28;20013;-71
2021/05/17 11:52:54;;;;;;;2.20;0.70;;;;;;;;;;5068263;28;20021;-71
2021/05/17 11:55:19;;;;;;;1.23;0.50;;;;;;;;;;5054657;28;20486;-70
2021/05/17 11:57:45;;;;;;;0.60;0.47;;;;;;;;;;5049996;28;20017;-72
2021/05/17 12:00:15;;;;;;;0.90;0.40;;;;;;;;;;5051640;28;20035;-71
2021/05/17 12:02:46;;;;;;;1.55;0.40;;;;;;;;;;5055149;28;20017;-72
2021/05/17 12:05:12;;;;;;;1.15;0.45;;;;;;;;;;5049166;28;20025;-72
2021/05/17 12:07:43;;;;;;;1.33;0.40;;;;;;;;;;5053263;28;20033;-70
2021/05/17 12:10:09;;;;;;;2.10;0.40;;;;;;;;;;5052794;28;20028;-71
2021/05/17 12:12:34;;;;;;;0.22;0.22;;;;;;;;;;5051557;28;20494;-71
2021/05/17 12:15:05;;;;;;;0.95;0.40;;;;;;;;;;5056633;28;20365;-71
2021/05/17 12:17:33;;;;;;;1.83;0.50;;;;;;;;;;5070703;28;20028;-71
2021/05/17 12:19:59;;;;;;;0.88;0.40;;;;;;;;;;5063696;28;20043;-71
2021/05/17 12:22:30;;;;;;;2.50;0.38;;;;;;;;;;5053680;28;20020;-71
2021/05/17 12:24:56;;;;;;;0.93;0.30;;;;;;;;;;5064302;28;20085;-71
2021/05/17 12:27:21;;;;;;;2.53;0.52;;;;;;;;;;5057339;28;20098;-71
2021/05/17 12:29:50;;;;;;;1.58;0.40;;;;;;;;;;5055214;28;20036;-70
2021/05/17 12:32:15;;;;;;;0.73;0.40;;;;;;;;;;5051099;28;20065;-70
2021/05/17 12:34:50;;;;;;;0.40;0.38;;;;;;;;;;5044429;28;20033;-70
2021/05/17 12:37:16;;;;;;;1.30;0.30;;;;;;;;;;5049438;28;20132;-71
2021/05/17 12:39:41;;;;;;;0.63;0.30;;;;;;;;;;5046940;28;20167;-70
2021/05/17 12:42:13;;;;;;;0.60;0.40;;;;;;;;;;5052555;28;20393;-73
2021/05/17 12:44:40;;;;;;;0.95;0.30;;;;;;;;;;5051120;28;20024;-72
2021/05/17 12:47:05;;;;;;;1.15;0.47;;;;;;;;;;5053627;28;20032;-72
2021/05/17 12:49:45;;;;;;;0.88;0.40;;;;;;;;;;5064569;28;20463;-72
2021/05/17 12:52:11;;;;;;;2.67;0.68;;;;;;;;;;5063892;28;20029;-72
2021/05/17 12:54:36;;;;;;;2.03;0.60;;;;;;;;;;5064943;28;20210;-72
2021/05/17 12:57:05;;;;;;;1.13;0.50;;;;;;;;;;5054560;28;20013;-70
2021/05/17 12:59:43;;;;;;;1.52;0.50;;;;;;;;;;5047879;28;20029;-71
2021/05/17 13:02:12;;;;;;;1.90;0.55;;;;;;;;;;5044833;28;20017;-72
2021/05/17 13:04:37;;;;;;;1.83;0.43;;;;;;;;;;5053404;28;20035;-73
2021/05/17 13:07:05;;;;;;;1.75;0.40;;;;;;;;;;5032445;28;20594;-71
2021/05/17 13:09:33;;;;;;;3.10;0.40;;;;;;;;;;5049896;28;20311;-72
2021/05/17 13:11:59;;;;;;;1.98;0.50;;;;;;;;;;5049067;28;20055;-71
2021/05/17 13:14:24;;;;;;;1.42;0.30;;;;;;;;;;5054667;28;20025;-71
2021/05/17 13:16:50;;;;;;;1.65;0.32;;;;;;;;;;5061939;28;20561;-73
2021/05/17 13:19:33;;;;;;;0.90;0.28;;;;;;;;;;5055951;28;20063;-72
2021/05/17 13:25:19;;;;;;;1.23;0.32;;;;;;;;;;5050180;28;20436;-73
2021/05/17 13:30:18;;;;;;;0.47;0.15;;;;;;;;;;5053334;28;20037;-71
2021/05/17 13:32:49;;;;;;;0.35;0.22;;;;;;;;;;5057267;28;20049;-69
2021/05/17 13:35:14;;;;;;;2.70;0.50;;;;;;;;;;5067877;28;20028;-71
2021/05/17 13:37:40;;;;;;;0.45;0.30;;;;;;;;;;5052947;28;20083;-70
2021/05/17 13:40:06;;;;;;;0.73;0.30;;;;;;;;;;5063591;28;20016;-70
2021/05/17 13:42:31;;;;;;;1.13;0.30;;;;;;;;;;5050810;28;20017;-71
2021/05/17 13:44:57;;;;;;;0.85;0.30;;;;;;;;;;5052783;28;20037;-72
2021/05/17 13:47:22;;;;;;;0.20;0.20;;;;;;;;;;5046697;28;20105;-71
2021/05/17 13:49:47;;;;;;;0.52;0.20;;;;;;;;;;5032825;28;20504;-70
2021/05/17 13:52:12;;;;;;;0.20;0.20;;;;;;;;;;5047148;28;20024;-70
2021/05/17 13:54:39;;;;;;;0.52;0.20;;;;;;;;;;5051760;28;20046;-71
2021/05/17 13:57:04;;;;;;;3.00;0.20;;;;;;;;;;5047395;28;20036;-71
2021/05/17 13:59:29;;;;;;;0.30;0.20;;;;;;;;;;5055775;28;20099;-72
2021/05/17 14:01:55;;;;;;;0.40;0.15;;;;;;;;;;5062447;28;20120;-71
2021/05/17 14:04:21;;;;;;;2.05;0.20;;;;;;;;;;5062099;28;20025;-72
2021/05/17 14:06:46;;;;;;;0.20;0.20;;;;;;;;;;5062717;28;20020;-73
2021/05/17 14:09:12;;;;;;;0.90;0.30;;;;;;;;;;5059649;28;20052;-73
2021/05/17 14:11:37;;;;;;;0.80;0.20;;;;;;;;;;5061066;28;20024;-70
2021/05/17 14:14:03;;;;;;;0.20;0.20;;;;;;;;;;5059984;28;20036;-70
2021/05/17 14:16:28;;;;;;;0.55;0.30;;;;;;;;;;5059854;28;20027;-72
2021/05/17 14:18:53;;;;;;;0.32;0.25;;;;;;;;;;5060462;28;20020;-71
2021/05/17 14:21:18;;;;;;;0.40;0.20;;;;;;;;;;5052260;28;20021;-69
2021/05/17 14:23:43;;;;;;;0.80;0.35;;;;;;;;;;5051739;28;20021;-70
2021/05/17 14:26:08;;;;;;;0.98;0.50;;;;;;;;;;5046320;28;20033;-72
2021/05/17 14:28:34;;;;;;;0.38;0.28;;;;;;;;;;5063983;28;20353;-70
2021/05/17 14:30:59;;;;;;;0.47;0.25;;;;;;;;;;5060944;28;20036;-72
2021/05/17 14:33:25;;;;;;;0.40;0.30;;;;;;;;;;5056241;28;20036;-71
2021/05/17 14:35:50;;;;;;;0.73;0.32;;;;;;;;;;5061433;28;20036;-70
2021/05/17 14:38:15;;;;;;;0.55;0.28;;;;;;;;;;5057698;28;20036;-71
2021/05/17 14:40:41;;;;;;;1.02;0.30;;;;;;;;;;5027115;28;20037;-70
2021/05/17 14:43:06;;;;;;;1.45;0.30;;;;;;;;;;5044349;28;20476;-71
2021/05/17 14:45:31;;;;;;;0.73;0.47;;;;;;;;;;5044010;28;20025;-71
2021/05/17 14:47:57;;;;;;;0.38;0.30;;;;;;;;;;5052016;28;20028;-70
2021/05/17 14:50:22;;;;;;;1.42;0.40;;;;;;;;;;5051205;28;20540;-70
2021/05/17 14:52:47;;;;;;;1.05;0.38;;;;;;;;;;5056628;28;20033;-69
2021/05/17 14:55:14;;;;;;;2.58;0.30;;;;;;;;;;5049305;28;20035;-71
2021/05/17 14:57:39;;;;;;;1.77;0.50;;;;;;;;;;5059179;28;20025;-72
2021/05/17 15:00:06;;;;;;;1.48;0.45;;;;;;;;;;5052838;28;20055;-71
2021/05/17 15:02:31;;;;;;;0.93;0.60;;;;;;;;;;5065639;28;20040;-72
2021/05/17 15:04:56;;;;;;;3.05;0.60;;;;;;;;;;5053484;28;20017;-72
2021/05/17 15:07:22;;;;;;;1.15;0.52;;;;;;;;;;5031329;28;20484;-71
2021/05/17 15:09:47;;;;;;;1.00;0.50;;;;;;;;;;5057217;28;20024;-71